createdAt,value
2019-04-30T00:00:34.712Z,10.49
2019-04-30T00:05:30.935Z,10.43
2019-04-30T00:10:35.390Z,10.40
2019-04-30T00:15:25.746Z,10.33
2019-04-30T00:20:21.841Z,10.28
2019-04-30T00:25:19.730Z,10.34
2019-04-30T00:30:16.012Z,10.26
2019-04-30T00:35:16.283Z,10.41
2019-04-30T00:40:12.188Z,10.31
2019-04-30T00:45:10.004Z,10.30
2019-04-30T00:50:07.163Z,10.33
2019-04-30T00:55:09.056Z,10.22
2019-04-30T01:00:06.330Z,10.02
2019-04-30T01:05:13.092Z,9.79
2019-04-30T01:10:11.325Z,9.72
2019-04-30T01:15:11.114Z,9.64
2019-04-30T01:20:06.289Z,9.60
2019-04-30T01:25:12.030Z,9.41
2019-04-30T01:30:05.680Z,9.40
2019-04-30T01:35:01.707Z,9.34
2019-04-30T01:39:58.900Z,9.21
2019-04-30T01:44:55.567Z,9.20
2019-04-30T01:49:51.497Z,9.03
2019-04-30T01:54:49.060Z,9.05
2019-04-30T02:00:02.033Z,9.07
2019-04-30T02:04:59.189Z,9.09
2019-04-30T02:09:55.181Z,9.04
2019-04-30T02:14:51.825Z,9.03
2019-04-30T02:19:54.729Z,9.01
2019-04-30T02:24:45.799Z,8.93
2019-04-30T02:29:41.699Z,8.89
2019-04-30T02:34:41.153Z,8.83
2019-04-30T02:39:40.124Z,8.63
2019-04-30T02:44:36.216Z,8.35
2019-04-30T02:49:32.250Z,8.14
2019-04-30T02:54:29.838Z,8.37
2019-04-30T02:59:25.910Z,8.46
2019-04-30T03:04:21.911Z,8.57
2019-04-30T03:09:20.179Z,8.70
2019-04-30T03:14:15.684Z,8.71
2019-04-30T03:19:29.483Z,8.76
2019-04-30T03:24:25.772Z,8.84
2019-04-30T03:29:24.041Z,8.85
2019-04-30T03:34:25.240Z,8.87
2019-04-30T03:39:19.735Z,8.85
2019-04-30T03:44:21.669Z,8.90
2019-04-30T03:49:13.621Z,8.76
2019-04-30T03:54:10.261Z,8.88
2019-04-30T03:59:06.302Z,8.84
2019-04-30T04:04:20.904Z,8.71
2019-04-30T04:09:24.338Z,8.82
2019-04-30T04:14:20.351Z,8.89
2019-04-30T04:19:16.274Z,8.94
2019-04-30T04:24:12.405Z,8.67
2019-04-30T04:29:09.516Z,8.75
2019-04-30T04:34:06.246Z,8.55
2019-04-30T04:39:03.579Z,8.50
2019-04-30T04:44:00.610Z,8.56
2019-04-30T04:48:59.481Z,8.57
2019-04-30T04:53:54.381Z,8.58
2019-04-30T04:58:50.408Z,8.41
2019-04-30T05:03:48.830Z,8.54
2019-04-30T05:08:44.324Z,8.75
2019-04-30T05:13:40.249Z,8.94
2019-04-30T05:18:36.287Z,8.86
2019-04-30T05:23:32.205Z,8.70
2019-04-30T05:28:29.864Z,8.74
2019-04-30T05:33:25.965Z,8.45
2019-04-30T05:38:21.931Z,8.62
2019-04-30T05:48:08.918Z,9.10
2019-04-30T05:53:04.918Z,8.94
2019-04-30T05:58:01.459Z,9.01
2019-04-30T06:02:59.482Z,9.06
2019-04-30T06:07:55.569Z,8.63
2019-04-30T06:12:56.495Z,8.36
2019-04-30T06:18:00.303Z,8.39
2019-04-30T06:22:54.887Z,8.42
2019-04-30T06:27:51.120Z,8.66
2019-04-30T06:32:49.465Z,8.67
2019-04-30T06:37:45.407Z,8.92
2019-04-30T06:42:41.465Z,8.88
2019-04-30T06:47:38.910Z,8.55
2019-04-30T06:52:35.140Z,8.54
2019-04-30T06:57:31.069Z,9.05
2019-04-30T07:02:30.642Z,9.13
2019-04-30T07:07:36.286Z,8.95
2019-04-30T07:12:28.562Z,8.72
2019-04-30T07:17:24.304Z,8.89
2019-04-30T07:22:36.062Z,9.06
2019-04-30T07:27:23.728Z,9.28
2019-04-30T07:32:15.895Z,10.14
2019-04-30T07:37:20.501Z,9.83
2019-04-30T07:42:09.685Z,10.13
2019-04-30T07:47:05.645Z,10.48
2019-04-30T07:52:02.473Z,9.78
2019-04-30T07:57:00.529Z,9.69
2019-04-30T08:02:07.614Z,10.24
2019-04-30T08:06:56.765Z,10.73
2019-04-30T08:11:52.784Z,10.54
2019-04-30T08:16:50.976Z,10.84
2019-04-30T08:21:48.501Z,10.68
2019-04-30T08:26:44.565Z,11.46
2019-04-30T08:31:40.942Z,10.66
2019-04-30T08:36:38.658Z,10.65
2019-04-30T08:41:34.800Z,11.24
2019-04-30T08:46:30.733Z,12.21
2019-04-30T08:51:30.528Z,12.73
2019-04-30T08:56:24.596Z,12.05
2019-04-30T09:01:20.602Z,12.11
2019-04-30T09:06:19.562Z,12.97
2019-04-30T09:11:25.047Z,12.15
2019-04-30T09:16:13.514Z,12.24
2019-04-30T09:21:10.125Z,12.80
2019-04-30T09:26:06.024Z,12.39
2019-04-30T09:31:03.250Z,13.19
2019-04-30T09:35:59.608Z,12.90
2019-04-30T09:40:55.777Z,13.00
2019-04-30T09:45:51.728Z,13.63
2019-04-30T09:50:50.422Z,13.39
2019-04-30T09:55:46.631Z,13.25
2019-04-30T10:00:42.649Z,13.53
2019-04-30T10:05:39.106Z,14.25
2019-04-30T10:10:38.753Z,14.25
2019-04-30T10:15:36.750Z,14.92
2019-04-30T10:20:47.775Z,14.55
2019-04-30T10:25:43.793Z,14.66
2019-04-30T10:30:39.737Z,14.13
2019-04-30T10:35:35.691Z,14.46
2019-04-30T10:40:31.617Z,14.68
2019-04-30T10:45:28.817Z,14.89
2019-04-30T10:50:32.207Z,15.20
2019-04-30T10:55:28.717Z,15.58
2019-04-30T11:00:39.016Z,17.01
2019-04-30T11:05:35.315Z,15.97
2019-04-30T11:10:31.341Z,16.26
2019-04-30T11:15:28.840Z,16.10
2019-04-30T11:20:35.619Z,16.14
2019-04-30T11:25:32.501Z,16.29
2019-04-30T11:30:29.706Z,16.43
2019-04-30T11:35:26.255Z,15.88
2019-04-30T11:40:31.714Z,16.27
2019-04-30T11:45:26.514Z,16.15
2019-04-30T11:50:23.672Z,16.33
2019-04-30T11:55:19.895Z,16.58
2019-04-30T12:00:24.149Z,17.46
2019-04-30T12:05:20.922Z,16.75
2019-04-30T12:10:19.474Z,16.76
2019-04-30T12:15:15.701Z,16.85
2019-04-30T12:20:12.073Z,17.75
2019-04-30T12:25:10.055Z,17.01
2019-04-30T12:30:06.722Z,16.93
2019-04-30T12:35:05.106Z,17.34
2019-04-30T12:40:01.341Z,17.02
2019-04-30T12:44:57.272Z,16.58
2019-04-30T12:50:06.946Z,16.85
2019-04-30T12:55:15.197Z,17.31
2019-04-30T13:00:09.424Z,17.31
2019-04-30T13:05:05.894Z,18.16
2019-04-30T13:10:12.934Z,17.20
2019-04-30T13:15:12.367Z,17.83
2019-04-30T13:20:18.604Z,17.78
2019-04-30T13:25:14.616Z,17.52
2019-04-30T13:30:20.244Z,17.73
2019-04-30T13:35:19.007Z,17.79
2019-04-30T13:40:23.369Z,17.48
2019-04-30T13:45:20.889Z,17.95
2019-04-30T13:50:20.981Z,18.22
2019-04-30T13:55:19.081Z,17.38
2019-04-30T14:00:30.138Z,18.35
2019-04-30T14:05:29.637Z,17.74
2019-04-30T14:10:29.423Z,17.81
2019-04-30T14:15:38.560Z,17.83
2019-04-30T14:20:37.100Z,17.61
2019-04-30T14:25:36.976Z,17.81
2019-04-30T14:30:34.688Z,18.01
2019-04-30T14:35:33.512Z,18.17
2019-04-30T14:40:30.536Z,18.99
2019-04-30T14:45:28.994Z,18.09
2019-04-30T14:50:35.175Z,17.89
2019-04-30T14:55:42.354Z,17.70
2019-04-30T15:00:59.227Z,18.72
2019-04-30T15:05:54.936Z,18.36
2019-04-30T15:10:50.865Z,18.41
2019-04-30T15:15:46.897Z,18.23
2019-04-30T15:20:49.598Z,18.21
2019-04-30T15:25:45.501Z,18.58
2019-04-30T15:30:42.102Z,18.05
2019-04-30T15:35:38.171Z,18.23
2019-04-30T15:40:34.099Z,18.33
2019-04-30T15:45:30.230Z,18.38
2019-04-30T15:50:39.281Z,18.15
2019-04-30T15:55:35.346Z,18.52
2019-04-30T16:00:31.887Z,18.47
2019-04-30T16:05:29.730Z,18.12
2019-04-30T16:10:36.794Z,18.32
2019-04-30T16:15:32.810Z,18.67
2019-04-30T16:20:39.278Z,19.10
2019-04-30T16:25:35.724Z,18.10
2019-04-30T16:30:31.710Z,18.25
2019-04-30T16:35:29.573Z,19.27
2019-04-30T16:40:25.706Z,18.92
2019-04-30T16:45:21.746Z,18.39
2019-04-30T16:50:19.447Z,18.58
2019-04-30T16:55:16.077Z,18.27
2019-04-30T17:00:13.307Z,18.16
2019-04-30T17:05:23.267Z,18.60
2019-04-30T17:10:33.328Z,18.70
2019-04-30T17:15:31.161Z,18.21
2019-04-30T17:20:41.026Z,18.20
2019-04-30T17:25:37.083Z,18.13
2019-04-30T17:30:33.004Z,18.90
2019-04-30T17:35:29.025Z,18.74
2019-04-30T17:40:25.224Z,18.73
2019-04-30T17:45:21.423Z,17.82
2019-04-30T17:50:19.021Z,17.81
2019-04-30T17:55:15.246Z,17.39
2019-04-30T18:00:18.781Z,17.11
2019-04-30T18:05:11.744Z,17.39
2019-04-30T18:10:13.791Z,17.20
2019-04-30T18:15:15.310Z,17.33
2019-04-30T18:20:36.773Z,16.98
2019-04-30T18:25:37.275Z,16.78
2019-04-30T18:30:35.154Z,16.35
2019-04-30T18:35:31.311Z,16.15
2019-04-30T18:40:27.244Z,15.91
2019-04-30T18:45:23.174Z,15.60
2019-04-30T18:50:20.669Z,15.52
2019-04-30T18:55:16.700Z,15.26
2019-04-30T19:00:14.957Z,14.68
2019-04-30T19:05:13.752Z,14.48
2019-04-30T19:10:17.441Z,14.57
2019-04-30T19:15:18.056Z,14.38
2019-04-30T19:20:18.815Z,14.23
2019-04-30T19:25:15.087Z,14.07
2019-04-30T19:30:11.314Z,13.70
2019-04-30T19:35:09.024Z,13.79
2019-04-30T19:40:08.564Z,13.71
2019-04-30T19:45:10.071Z,13.71
2019-04-30T19:50:04.277Z,13.69
2019-04-30T19:55:00.199Z,13.67
2019-04-30T19:59:56.271Z,13.76
2019-04-30T20:04:52.201Z,13.69
2019-04-30T20:10:00.198Z,13.70
2019-04-30T20:14:46.034Z,13.71
2019-04-30T20:19:41.964Z,13.79
2019-04-30T20:24:39.410Z,13.66
2019-04-30T20:29:35.485Z,13.64
2019-04-30T20:34:31.423Z,13.48
2019-04-30T20:39:44.362Z,13.33
2019-04-30T20:44:40.304Z,13.37
2019-04-30T20:49:36.242Z,13.30
2019-04-30T20:54:32.281Z,13.28
2019-04-30T20:59:29.138Z,13.30
2019-04-30T21:04:25.282Z,13.20
2019-04-30T21:09:21.229Z,13.18
2019-04-30T21:14:19.184Z,13.02
2019-04-30T21:19:15.082Z,12.92
2019-04-30T21:24:11.010Z,12.69
2019-04-30T21:29:13.159Z,12.54
2019-04-30T21:34:15.770Z,12.53
2019-04-30T21:39:11.705Z,12.39
2019-04-30T21:44:07.651Z,12.31
2019-04-30T21:49:03.574Z,12.24
2019-04-30T21:53:59.519Z,12.32
2019-04-30T21:58:55.450Z,12.27
2019-04-30T22:03:51.578Z,12.14
2019-04-30T22:08:48.577Z,11.96
2019-04-30T22:13:44.780Z,11.90
2019-04-30T22:18:40.725Z,11.87
2019-04-30T22:23:36.650Z,11.76
2019-04-30T22:28:32.976Z,11.69
2019-04-30T22:33:29.307Z,11.52
2019-04-30T22:38:30.254Z,11.41
2019-04-30T22:43:26.299Z,11.40
2019-04-30T22:48:22.226Z,11.39
2019-04-30T22:53:18.149Z,11.26
2019-04-30T22:58:14.186Z,11.14
2019-04-30T23:03:12.227Z,10.78
2019-04-30T23:08:08.163Z,10.93
2019-04-30T23:13:04.200Z,10.93
2019-04-30T23:18:00.201Z,10.78
2019-04-30T23:22:56.135Z,10.68
2019-04-30T23:27:52.065Z,10.38
2019-04-30T23:32:47.995Z,10.52
2019-04-30T23:37:43.984Z,10.46
2019-04-30T23:42:39.910Z,10.03
2019-04-30T23:47:35.837Z,10.28
2019-04-30T23:52:31.769Z,10.50
2019-04-30T23:57:27.810Z,10.49
